sensor_id;sensor_type;location;lat;lon;timestamp;pressure;altitude;pressure_sealevel;temperature;humidity
47366;BME280;33105;47.964;7.982;2022-12-29T00:00:16;96400.72;;;11.59;53.59
47366;BME280;33105;47.964;7.982;2022-12-29T00:03:19;96394.97;;;11.51;54.26
47366;BME280;33105;47.964;7.982;2022-12-29T00:06:23;96395.25;;;11.49;52.45
47366;BME280;33105;47.964;7.982;2022-12-29T00:09:26;96403.69;;;11.63;53.68
47366;BME280;33105;47.964;7.982;2022-12-29T00:12:29;96403.19;;;11.51;51.65
47366;BME280;33105;47.964;7.982;2022-12-29T00:15:50;96411.63;;;11.65;50.82
47366;BME280;33105;47.964;7.982;2022-12-29T00:18:51;96403.19;;;11.56;51.97
47366;BME280;33105;47.964;7.982;2022-12-29T00:21:52;96391.16;;;11.57;51.52
47366;BME280;33105;47.964;7.982;2022-12-29T00:25:13;96389.78;;;11.39;51.38
47366;BME280;33105;47.964;7.982;2022-12-29T00:28:33;96382.94;;;11.57;50.44
47366;BME280;33105;47.964;7.982;2022-12-29T00:31:53;96379.94;;;11.58;51.41
47366;BME280;33105;47.964;7.982;2022-12-29T00:35:16;96380.47;;;11.55;51.90
47366;BME280;33105;47.964;7.982;2022-12-29T00:38:18;96389.19;;;11.68;50.64
47366;BME280;33105;47.964;7.982;2022-12-29T00:41:39;96384.59;;;11.53;51.47
47366;BME280;33105;47.964;7.982;2022-12-29T00:45:01;96363.53;;;11.53;51.27
47366;BME280;33105;47.964;7.982;2022-12-29T00:48:04;96368.72;;;11.45;49.64
47366;BME280;33105;47.964;7.982;2022-12-29T00:51:07;96362.47;;;11.29;53.02
47366;BME280;33105;47.964;7.982;2022-12-29T00:54:09;96359.47;;;11.36;51.08
47366;BME280;33105;47.964;7.982;2022-12-29T00:57:11;96350.88;;;11.68;49.85
47366;BME280;33105;47.964;7.982;2022-12-29T01:00:13;96361.31;;;11.61;48.47
47366;BME280;33105;47.964;7.982;2022-12-29T01:03:16;96365.44;;;11.43;50.60
47366;BME280;33105;47.964;7.982;2022-12-29T01:06:18;96342.19;;;11.45;49.08
47366;BME280;33105;47.964;7.982;2022-12-29T01:09:20;96355.31;;;11.53;48.73
47366;BME280;33105;47.964;7.982;2022-12-29T01:12:40;96358.59;;;11.55;48.46
47366;BME280;33105;47.964;7.982;2022-12-29T01:15:50;96368.94;;;11.69;49.58
47366;BME280;33105;47.964;7.982;2022-12-29T01:18:54;96379.94;;;11.58;49.06
47366;BME280;33105;47.964;7.982;2022-12-29T01:21:56;96372.78;;;11.78;49.14
47366;BME280;33105;47.964;7.982;2022-12-29T01:24:59;96370.84;;;11.73;49.04
47366;BME280;33105;47.964;7.982;2022-12-29T01:28:02;96386.75;;;11.76;49.15
47366;BME280;33105;47.964;7.982;2022-12-29T01:31:12;96368.41;;;11.82;50.31
47366;BME280;33105;47.964;7.982;2022-12-29T01:34:15;96371.94;;;11.72;49.39
47366;BME280;33105;47.964;7.982;2022-12-29T01:37:19;96379.38;;;11.51;49.52
47366;BME280;33105;47.964;7.982;2022-12-29T01:40:45;96377.75;;;11.61;48.82
47366;BME280;33105;47.964;7.982;2022-12-29T01:47:46;96370.38;;;11.51;49.51
47366;BME280;33105;47.964;7.982;2022-12-29T01:50:53;96396.91;;;11.50;50.87
47366;BME280;33105;47.964;7.982;2022-12-29T01:53:56;96387.88;;;11.40;50.88
47366;BME280;33105;47.964;7.982;2022-12-29T01:57:03;96407.03;;;11.40;50.72
47366;BME280;33105;47.964;7.982;2022-12-29T02:00:09;96390.06;;;11.43;51.25
47366;BME280;33105;47.964;7.982;2022-12-29T02:03:20;96407.28;;;11.43;50.66
47366;BME280;33105;47.964;7.982;2022-12-29T02:06:36;96388.41;;;11.47;50.62
47366;BME280;33105;47.964;7.982;2022-12-29T02:09:40;96398.03;;;11.24;52.22
47366;BME280;33105;47.964;7.982;2022-12-29T02:12:42;96396.13;;;11.24;52.03
47366;BME280;33105;47.964;7.982;2022-12-29T02:22:44;96376.44;;;11.22;52.86
47366;BME280;33105;47.964;7.982;2022-12-29T02:26:20;96349.94;;;11.13;52.79
47366;BME280;33105;47.964;7.982;2022-12-29T02:32:48;96376.16;;;10.94;54.70
47366;BME280;33105;47.964;7.982;2022-12-29T02:36:21;96358.97;;;10.88;55.25
47366;BME280;33105;47.964;7.982;2022-12-29T02:39:41;96362.50;;;10.94;54.48
47366;BME280;33105;47.964;7.982;2022-12-29T02:46:44;96350.50;;;10.79;55.28
47366;BME280;33105;47.964;7.982;2022-12-29T02:50:25;96373.44;;;10.83;55.14
47366;BME280;33105;47.964;7.982;2022-12-29T02:53:30;96374.53;;;10.82;55.41
47366;BME280;33105;47.964;7.982;2022-12-29T02:56:54;96390.94;;;10.87;55.92
47366;BME280;33105;47.964;7.982;2022-12-29T03:00:20;96375.06;;;10.89;55.39
47366;BME280;33105;47.964;7.982;2022-12-29T03:03:28;96380.00;;;10.77;55.89
47366;BME280;33105;47.964;7.982;2022-12-29T03:13:49;96393.38;;;10.99;56.52
47366;BME280;33105;47.964;7.982;2022-12-29T03:17:18;96392.59;;;10.88;56.07
47366;BME280;33105;47.964;7.982;2022-12-29T03:20:34;96400.78;;;10.88;57.28
47366;BME280;33105;47.964;7.982;2022-12-29T03:23:42;96388.72;;;10.69;57.46
47366;BME280;33105;47.964;7.982;2022-12-29T03:26:47;96389.53;;;10.70;56.93
47366;BME280;33105;47.964;7.982;2022-12-29T03:29:54;96372.34;;;10.79;58.03
47366;BME280;33105;47.964;7.982;2022-12-29T03:33:12;96384.34;;;10.68;57.10
47366;BME280;33105;47.964;7.982;2022-12-29T03:36:36;96341.72;;;10.67;57.23
47366;BME280;33105;47.964;7.982;2022-12-29T03:39:52;96340.09;;;10.56;56.67
47366;BME280;33105;47.964;7.982;2022-12-29T03:42:55;96345.56;;;10.61;56.75
47366;BME280;33105;47.964;7.982;2022-12-29T03:45:58;96319.63;;;10.59;57.80
47366;BME280;33105;47.964;7.982;2022-12-29T03:48:59;96337.34;;;10.41;58.92
47366;BME280;33105;47.964;7.982;2022-12-29T03:52:01;96332.69;;;10.41;58.34
47366;BME280;33105;47.964;7.982;2022-12-29T03:55:04;96322.59;;;10.52;57.32
47366;BME280;33105;47.964;7.982;2022-12-29T03:58:06;96337.34;;;10.66;57.83
47366;BME280;33105;47.964;7.982;2022-12-29T04:01:32;96333.25;;;10.48;57.75
47366;BME280;33105;47.964;7.982;2022-12-29T04:04:33;96328.91;;;10.78;57.32
47366;BME280;33105;47.964;7.982;2022-12-29T04:07:35;96355.94;;;10.74;58.29
47366;BME280;33105;47.964;7.982;2022-12-29T04:10:38;96347.72;;;10.64;58.52
47366;BME280;33105;47.964;7.982;2022-12-29T04:13:40;96345.56;;;10.66;57.97
47366;BME280;33105;47.964;7.982;2022-12-29T04:16:44;96352.38;;;10.69;58.21
47366;BME280;33105;47.964;7.982;2022-12-29T04:19:46;96331.06;;;10.71;58.76
47366;BME280;33105;47.964;7.982;2022-12-29T04:22:58;96338.47;;;10.85;58.99
47366;BME280;33105;47.964;7.982;2022-12-29T04:26:15;96350.75;;;10.63;59.04
47366;BME280;33105;47.964;7.982;2022-12-29T04:29:29;96330.81;;;10.77;58.79
47366;BME280;33105;47.964;7.982;2022-12-29T04:32:44;96352.13;;;11.01;58.72
47366;BME280;33105;47.964;7.982;2022-12-29T04:35:46;96348.03;;;10.78;59.69
47366;BME280;33105;47.964;7.982;2022-12-29T04:38:49;96361.41;;;10.79;59.34
47366;BME280;33105;47.964;7.982;2022-12-29T04:41:51;96352.41;;;11.04;59.32
47366;BME280;33105;47.964;7.982;2022-12-29T04:44:58;96353.22;;;10.79;59.27
47366;BME280;33105;47.964;7.982;2022-12-29T04:48:25;96343.66;;;10.72;59.93
47366;BME280;33105;47.964;7.982;2022-12-29T04:51:46;96362.78;;;10.72;59.98
47366;BME280;33105;47.964;7.982;2022-12-29T04:54:50;96358.16;;;10.82;60.04
47366;BME280;33105;47.964;7.982;2022-12-29T04:57:58;96317.13;;;10.98;57.78
47366;BME280;33105;47.964;7.982;2022-12-29T05:01:06;96327.25;;;10.97;57.95
47366;BME280;33105;47.964;7.982;2022-12-29T05:04:10;96323.16;;;11.05;57.55
47366;BME280;33105;47.964;7.982;2022-12-29T05:07:16;96318.22;;;10.97;57.67
47366;BME280;33105;47.964;7.982;2022-12-29T05:10:20;96328.63;;;11.00;58.47
47366;BME280;33105;47.964;7.982;2022-12-29T05:13:23;96336.22;;;11.18;56.25
47366;BME280;33105;47.964;7.982;2022-12-29T05:16:26;96334.88;;;11.20;58.25
47366;BME280;33105;47.964;7.982;2022-12-29T05:19:28;96317.63;;;11.25;56.24
47366;BME280;33105;47.964;7.982;2022-12-29T05:22:31;96322.28;;;11.19;57.30
47366;BME280;33105;47.964;7.982;2022-12-29T05:25:33;96321.75;;;11.22;57.09
47366;BME280;33105;47.964;7.982;2022-12-29T05:28:46;96315.47;;;11.17;57.36
47366;BME280;33105;47.964;7.982;2022-12-29T05:31:53;96307.75;;;11.39;56.73
47366;BME280;33105;47.964;7.982;2022-12-29T05:34:55;96311.34;;;11.19;56.67
47366;BME280;33105;47.964;7.982;2022-12-29T05:37:58;96313.19;;;11.54;55.26
47366;BME280;33105;47.964;7.982;2022-12-29T05:41:01;96309.38;;;11.40;55.33
47366;BME280;33105;47.964;7.982;2022-12-29T05:44:21;96302.28;;;11.39;55.64
47366;BME280;33105;47.964;7.982;2022-12-29T05:47:45;96305.03;;;11.34;55.60
47366;BME280;33105;47.964;7.982;2022-12-29T05:51:07;96312.06;;;11.61;55.23
47366;BME280;33105;47.964;7.982;2022-12-29T05:54:20;96296.22;;;11.52;55.08
47366;BME280;33105;47.964;7.982;2022-12-29T05:57:21;96313.75;;;11.46;56.08
47366;BME280;33105;47.964;7.982;2022-12-29T06:00:32;96295.13;;;11.48;54.38
47366;BME280;33105;47.964;7.982;2022-12-29T06:03:34;96298.13;;;11.62;55.52
47366;BME280;33105;47.964;7.982;2022-12-29T06:06:35;96306.16;;;11.33;54.63
47366;BME280;33105;47.964;7.982;2022-12-29T06:09:39;96306.91;;;11.54;55.16
47366;BME280;33105;47.964;7.982;2022-12-29T06:12:41;96305.53;;;11.56;53.82
47366;BME280;33105;47.964;7.982;2022-12-29T06:15:48;96299.78;;;11.58;53.87
47366;BME280;33105;47.964;7.982;2022-12-29T06:18:49;96289.94;;;11.52;54.13
47366;BME280;33105;47.964;7.982;2022-12-29T06:21:51;96300.06;;;11.51;53.89
47366;BME280;33105;47.964;7.982;2022-12-29T06:25:04;96282.03;;;11.45;53.52
47366;BME280;33105;47.964;7.982;2022-12-29T06:28:08;96289.41;;;11.45;52.96
47366;BME280;33105;47.964;7.982;2022-12-29T06:31:13;96283.66;;;11.41;55.39
47366;BME280;33105;47.964;7.982;2022-12-29T06:34:14;96290.28;;;11.25;54.29
47366;BME280;33105;47.964;7.982;2022-12-29T06:37:16;96289.47;;;11.30;54.41
47366;BME280;33105;47.964;7.982;2022-12-29T06:40:19;96297.06;;;11.48;53.54
47366;BME280;33105;47.964;7.982;2022-12-29T06:43:46;96291.84;;;11.56;53.28
47366;BME280;33105;47.964;7.982;2022-12-29T06:47:17;96282.84;;;11.41;52.60
47366;BME280;33105;47.964;7.982;2022-12-29T06:50:20;96271.97;;;11.31;53.22
47366;BME280;33105;47.964;7.982;2022-12-29T06:53:21;96281.25;;;11.35;52.93
47366;BME280;33105;47.964;7.982;2022-12-29T06:56:22;96287.00;;;11.28;53.22
47366;BME280;33105;47.964;7.982;2022-12-29T06:59:27;96296.50;;;11.46;54.00
47366;BME280;33105;47.964;7.982;2022-12-29T07:02:29;96299.31;;;11.25;54.95
47366;BME280;33105;47.964;7.982;2022-12-29T07:05:31;96295.06;;;11.64;54.07
47366;BME280;33105;47.964;7.982;2022-12-29T07:08:33;96282.47;;;11.73;52.06
47366;BME280;33105;47.964;7.982;2022-12-29T07:11:35;96289.56;;;11.74;52.62
47366;BME280;33105;47.964;7.982;2022-12-29T07:14:36;96287.94;;;11.83;53.16
47366;BME280;33105;47.964;7.982;2022-12-29T07:17:39;96298.53;;;11.89;51.94
47366;BME280;33105;47.964;7.982;2022-12-29T07:20:41;96305.16;;;11.83;52.78
47366;BME280;33105;47.964;7.982;2022-12-29T07:23:45;96281.78;;;12.06;51.18
47366;BME280;33105;47.964;7.982;2022-12-29T07:26:47;96303.19;;;11.94;51.68
47366;BME280;33105;47.964;7.982;2022-12-29T07:29:48;96298.22;;;12.01;54.00
47366;BME280;33105;47.964;7.982;2022-12-29T07:32:50;96311.13;;;11.90;52.03
47366;BME280;33105;47.964;7.982;2022-12-29T07:35:52;96302.84;;;12.11;52.12
47366;BME280;33105;47.964;7.982;2022-12-29T07:38:53;96308.63;;;12.04;52.85
47366;BME280;33105;47.964;7.982;2022-12-29T07:41:54;96312.19;;;12.05;53.41
47366;BME280;33105;47.964;7.982;2022-12-29T07:44:59;96329.75;;;11.88;52.80
47366;BME280;33105;47.964;7.982;2022-12-29T07:48:11;96328.97;;;11.83;54.39
47366;BME280;33105;47.964;7.982;2022-12-29T07:51:14;96330.06;;;11.87;55.24
47366;BME280;33105;47.964;7.982;2022-12-29T07:54:16;96309.53;;;11.74;56.79
47366;BME280;33105;47.964;7.982;2022-12-29T07:57:21;96320.81;;;11.63;56.32
47366;BME280;33105;47.964;7.982;2022-12-29T08:00:24;96328.72;;;11.64;55.87
47366;BME280;33105;47.964;7.982;2022-12-29T08:03:26;96331.22;;;11.61;55.35
47366;BME280;33105;47.964;7.982;2022-12-29T08:06:28;96333.09;;;11.65;55.43
47366;BME280;33105;47.964;7.982;2022-12-29T08:09:31;96343.78;;;11.67;54.91
47366;BME280;33105;47.964;7.982;2022-12-29T08:12:32;96329.81;;;11.78;54.92
47366;BME280;33105;47.964;7.982;2022-12-29T08:15:34;96345.72;;;11.56;55.65
47366;BME280;33105;47.964;7.982;2022-12-29T08:18:35;96354.97;;;11.70;56.93
47366;BME280;33105;47.964;7.982;2022-12-29T08:21:37;96344.66;;;11.52;55.49
47366;BME280;33105;47.964;7.982;2022-12-29T08:24:39;96357.50;;;11.56;55.58
47366;BME280;33105;47.964;7.982;2022-12-29T08:27:42;96364.84;;;11.81;55.24
47366;BME280;33105;47.964;7.982;2022-12-29T08:30:44;96363.47;;;11.69;55.65
47366;BME280;33105;47.964;7.982;2022-12-29T08:33:45;96374.69;;;11.72;54.32
47366;BME280;33105;47.964;7.982;2022-12-29T08:36:47;96390.84;;;11.64;58.38
47366;BME280;33105;47.964;7.982;2022-12-29T08:39:50;96398.31;;;11.22;59.03
47366;BME280;33105;47.964;7.982;2022-12-29T08:42:58;96371.22;;;11.31;60.48
47366;BME280;33105;47.964;7.982;2022-12-29T08:46:00;96379.97;;;11.33;59.97
47366;BME280;33105;47.964;7.982;2022-12-29T08:49:02;96385.19;;;11.35;59.31
47366;BME280;33105;47.964;7.982;2022-12-29T08:52:07;96390.91;;;11.18;61.32
47366;BME280;33105;47.964;7.982;2022-12-29T08:55:13;96383.81;;;11.27;60.17
47366;BME280;33105;47.964;7.982;2022-12-29T08:58:19;96383.00;;;11.37;59.39
47366;BME280;33105;47.964;7.982;2022-12-29T09:01:24;96383.75;;;11.52;59.44
47366;BME280;33105;47.964;7.982;2022-12-29T09:04:26;96390.59;;;11.55;59.47
47366;BME280;33105;47.964;7.982;2022-12-29T09:07:28;96384.03;;;11.61;59.78
47366;BME280;33105;47.964;7.982;2022-12-29T09:10:30;96406.44;;;11.63;60.49
47366;BME280;33105;47.964;7.982;2022-12-29T09:13:32;96410.03;;;11.48;59.03
47366;BME280;33105;47.964;7.982;2022-12-29T09:16:34;96413.31;;;11.50;61.91
47366;BME280;33105;47.964;7.982;2022-12-29T09:19:36;96401.31;;;11.36;61.91
47366;BME280;33105;47.964;7.982;2022-12-29T09:22:38;96422.63;;;11.19;62.31
47366;BME280;33105;47.964;7.982;2022-12-29T09:25:40;96417.72;;;11.16;62.46
47366;BME280;33105;47.964;7.982;2022-12-29T09:28:45;96428.09;;;11.19;63.71
47366;BME280;33105;47.964;7.982;2022-12-29T09:31:48;96421.03;;;11.13;64.44
47366;BME280;33105;47.964;7.982;2022-12-29T09:34:49;96422.94;;;11.07;65.17
47366;BME280;33105;47.964;7.982;2022-12-29T09:37:51;96440.41;;;10.86;65.78
47366;BME280;33105;47.964;7.982;2022-12-29T09:41:14;96452.94;;;10.77;67.71
47366;BME280;33105;47.964;7.982;2022-12-29T09:47:44;96464.94;;;10.61;69.83
47366;BME280;33105;47.964;7.982;2022-12-29T09:50:51;96465.66;;;10.31;71.74
47366;BME280;33105;47.964;7.982;2022-12-29T09:54:28;96463.63;;;10.11;73.25
47366;BME280;33105;47.964;7.982;2022-12-29T09:57:42;96455.25;;;10.22;73.56
47366;BME280;33105;47.964;7.982;2022-12-29T10:04:05;96450.53;;;10.18;73.39
47366;BME280;33105;47.964;7.982;2022-12-29T10:10:34;96454.16;;;10.23;73.19
47366;BME280;33105;47.964;7.982;2022-12-29T10:14:09;96450.91;;;10.27;75.20
47366;BME280;33105;47.964;7.982;2022-12-29T10:23:51;96432.97;;;10.56;73.16
47366;BME280;33105;47.964;7.982;2022-12-29T10:26:55;96410.78;;;10.32;72.06
47366;BME280;33105;47.964;7.982;2022-12-29T10:30:01;96414.69;;;10.62;72.47
47366;BME280;33105;47.964;7.982;2022-12-29T10:33:06;96418.19;;;10.47;70.78
47366;BME280;33105;47.964;7.982;2022-12-29T10:36:23;96410.56;;;10.64;71.17
47366;BME280;33105;47.964;7.982;2022-12-29T10:39:38;96413.31;;;10.69;71.23
47366;BME280;33105;47.964;7.982;2022-12-29T10:42:52;96417.16;;;10.94;69.44
47366;BME280;33105;47.964;7.982;2022-12-29T10:45:58;96406.22;;;10.78;70.56
47366;BME280;33105;47.964;7.982;2022-12-29T10:49:01;96401.03;;;10.77;71.04
47366;BME280;33105;47.964;7.982;2022-12-29T10:52:11;96407.25;;;10.47;72.10
47366;BME280;33105;47.964;7.982;2022-12-29T10:55:21;96416.50;;;10.31;73.43
47366;BME280;33105;47.964;7.982;2022-12-29T10:58:25;96399.88;;;10.42;73.37
47366;BME280;33105;47.964;7.982;2022-12-29T11:01:34;96408.34;;;10.46;72.67
47366;BME280;33105;47.964;7.982;2022-12-29T11:08:03;96384.06;;;10.70;70.39
47366;BME280;33105;47.964;7.982;2022-12-29T11:11:09;96368.50;;;10.96;72.19
47366;BME280;33105;47.964;7.982;2022-12-29T11:14:14;96371.53;;;10.74;70.04
47366;BME280;33105;47.964;7.982;2022-12-29T11:17:16;96368.25;;;10.77;69.61
47366;BME280;33105;47.964;7.982;2022-12-29T11:20:38;96369.91;;;10.83;70.46
47366;BME280;33105;47.964;7.982;2022-12-29T11:23:41;96376.19;;;11.09;70.87
47366;BME280;33105;47.964;7.982;2022-12-29T11:26:44;96376.16;;;10.99;71.29
47366;BME280;33105;47.964;7.982;2022-12-29T11:29:46;96367.16;;;11.13;70.52
47366;BME280;33105;47.964;7.982;2022-12-29T11:32:52;96370.84;;;11.68;67.89
47366;BME280;33105;47.964;7.982;2022-12-29T11:35:58;96366.81;;;11.50;66.70
47366;BME280;33105;47.964;7.982;2022-12-29T11:39:02;96353.72;;;11.17;67.33
47366;BME280;33105;47.964;7.982;2022-12-29T11:42:11;96354.00;;;11.25;67.37
47366;BME280;33105;47.964;7.982;2022-12-29T11:45:16;96369.81;;;11.39;67.92
47366;BME280;33105;47.964;7.982;2022-12-29T11:48:20;96357.00;;;11.34;66.28
47366;BME280;33105;47.964;7.982;2022-12-29T11:51:27;96346.56;;;11.51;64.62
47366;BME280;33105;47.964;7.982;2022-12-29T11:54:33;96358.59;;;11.55;66.39
47366;BME280;33105;47.964;7.982;2022-12-29T11:57:35;96349.78;;;11.64;64.85
47366;BME280;33105;47.964;7.982;2022-12-29T12:00:38;96368.13;;;11.68;66.56
47366;BME280;33105;47.964;7.982;2022-12-29T12:03:48;96343.78;;;11.67;63.85
47366;BME280;33105;47.964;7.982;2022-12-29T12:07:11;96354.44;;;11.78;63.87
47366;BME280;33105;47.964;7.982;2022-12-29T12:10:21;96352.78;;;11.72;65.25
47366;BME280;33105;47.964;7.982;2022-12-29T12:13:29;96338.94;;;11.38;65.15
47366;BME280;33105;47.964;7.982;2022-12-29T12:16:46;96346.91;;;11.24;65.81
47366;BME280;33105;47.964;7.982;2022-12-29T12:19:59;96339.25;;;11.16;66.12
47366;BME280;33105;47.964;7.982;2022-12-29T12:30:09;96342.75;;;11.47;68.09
47366;BME280;33105;47.964;7.982;2022-12-29T12:33:45;96325.16;;;11.64;68.51
47366;BME280;33105;47.964;7.982;2022-12-29T12:54:09;96300.06;;;11.46;66.26
47366;BME280;33105;47.964;7.982;2022-12-29T12:57:22;96317.78;;;11.79;64.42
47366;BME280;33105;47.964;7.982;2022-12-29T13:00:34;96294.50;;;11.77;64.44
47366;BME280;33105;47.964;7.982;2022-12-29T13:16:35;96285.81;;;11.59;65.75
47366;BME280;33105;47.964;7.982;2022-12-29T13:19:48;96278.63;;;11.84;64.98
47366;BME280;33105;47.964;7.982;2022-12-29T13:22:58;96291.13;;;11.95;65.27
47366;BME280;33105;47.964;7.982;2022-12-29T13:26:21;96276.72;;;11.79;63.91
47366;BME280;33105;47.964;7.982;2022-12-29T13:29:34;96282.56;;;11.47;65.92
47366;BME280;33105;47.964;7.982;2022-12-29T13:32:56;96280.88;;;11.62;66.65
47366;BME280;33105;47.964;7.982;2022-12-29T13:36:23;96285.84;;;11.39;65.30
47366;BME280;33105;47.964;7.982;2022-12-29T13:39:33;96290.81;;;11.32;66.80
47366;BME280;33105;47.964;7.982;2022-12-29T13:42:36;96303.50;;;10.87;68.55
47366;BME280;33105;47.964;7.982;2022-12-29T13:45:39;96294.22;;;10.88;67.89
47366;BME280;33105;47.964;7.982;2022-12-29T13:48:53;96299.63;;;11.09;68.77
47366;BME280;33105;47.964;7.982;2022-12-29T13:51:58;96301.56;;;10.93;70.04
47366;BME280;33105;47.964;7.982;2022-12-29T13:58:38;96293.91;;;10.65;70.38
47366;BME280;33105;47.964;7.982;2022-12-29T14:01:48;96295.84;;;10.74;70.39
47366;BME280;33105;47.964;7.982;2022-12-29T14:08:05;96288.72;;;10.73;69.24
47366;BME280;33105;47.964;7.982;2022-12-29T14:11:16;96296.94;;;10.68;69.22
47366;BME280;33105;47.964;7.982;2022-12-29T14:14:24;96296.66;;;10.70;69.07
47366;BME280;33105;47.964;7.982;2022-12-29T14:17:29;96311.69;;;10.82;69.52
47366;BME280;33105;47.964;7.982;2022-12-29T14:20:33;96303.50;;;10.72;69.39
47366;BME280;33105;47.964;7.982;2022-12-29T14:23:51;96308.94;;;10.67;68.67
47366;BME280;33105;47.964;7.982;2022-12-29T14:27:00;96312.78;;;10.71;69.05
47366;BME280;33105;47.964;7.982;2022-12-29T14:34:22;96329.72;;;10.88;67.66
47366;BME280;33105;47.964;7.982;2022-12-29T14:37:33;96321.53;;;10.83;67.01
47366;BME280;33105;47.964;7.982;2022-12-29T14:40:36;96310.59;;;10.83;67.48
47366;BME280;33105;47.964;7.982;2022-12-29T14:44:01;96317.69;;;10.79;68.29
47366;BME280;33105;47.964;7.982;2022-12-29T14:50:43;96329.44;;;10.65;67.69
47366;BME280;33105;47.964;7.982;2022-12-29T14:53:49;96324.53;;;10.77;67.62
47366;BME280;33105;47.964;7.982;2022-12-29T14:56:51;96321.53;;;10.78;67.70
47366;BME280;33105;47.964;7.982;2022-12-29T15:00:07;96323.72;;;10.76;68.19
47366;BME280;33105;47.964;7.982;2022-12-29T15:03:38;96337.38;;;10.86;67.64
47366;BME280;33105;47.964;7.982;2022-12-29T15:06:52;96335.19;;;10.78;67.63
47366;BME280;33105;47.964;7.982;2022-12-29T15:10:03;96341.72;;;10.98;66.81
47366;BME280;33105;47.964;7.982;2022-12-29T15:13:15;96340.38;;;11.05;67.28
47366;BME280;33105;47.964;7.982;2022-12-29T15:16:32;96343.94;;;10.85;67.67
47366;BME280;33105;47.964;7.982;2022-12-29T15:20:29;96353.22;;;10.74;68.29
47366;BME280;33105;47.964;7.982;2022-12-29T15:23:36;96353.22;;;10.74;67.62
47366;BME280;33105;47.964;7.982;2022-12-29T15:26:45;96372.06;;;10.81;69.61
47366;BME280;33105;47.964;7.982;2022-12-29T15:30:04;96369.06;;;10.62;69.07
47366;BME280;33105;47.964;7.982;2022-12-29T15:33:23;96362.47;;;10.43;70.41
47366;BME280;33105;47.964;7.982;2022-12-29T15:36:27;96366.84;;;10.49;71.95
47366;BME280;33105;47.964;7.982;2022-12-29T15:39:38;96347.34;;;10.15;72.15
47366;BME280;33105;47.964;7.982;2022-12-29T15:46:14;96350.38;;;10.13;73.26
47366;BME280;33105;47.964;7.982;2022-12-29T15:49:20;96354.19;;;10.17;73.76
47366;BME280;33105;47.964;7.982;2022-12-29T15:52:23;96352.03;;;10.19;75.15
47366;BME280;33105;47.964;7.982;2022-12-29T15:55:30;96362.97;;;10.25;76.54
47366;BME280;33105;47.964;7.982;2022-12-29T15:58:42;96374.84;;;9.93;78.94
47366;BME280;33105;47.964;7.982;2022-12-29T16:01:48;96368.09;;;9.48;80.01
47366;BME280;33105;47.964;7.982;2022-12-29T16:04:53;96374.94;;;9.51;79.25
47366;BME280;33105;47.964;7.982;2022-12-29T16:11:37;96368.13;;;9.53;80.73
47366;BME280;33105;47.964;7.982;2022-12-29T16:14:47;96379.03;;;9.53;78.39
47366;BME280;33105;47.964;7.982;2022-12-29T16:17:54;96374.03;;;9.87;76.35
47366;BME280;33105;47.964;7.982;2022-12-29T16:20:59;96382.44;;;9.81;76.31
47366;BME280;33105;47.964;7.982;2022-12-29T16:24:23;96362.22;;;9.72;74.40
47366;BME280;33105;47.964;7.982;2022-12-29T16:27:36;96373.75;;;9.89;74.32
47366;BME280;33105;47.964;7.982;2022-12-29T16:30:43;96371.09;;;10.04;73.34
47366;BME280;33105;47.964;7.982;2022-12-29T16:40:31;96378.59;;;9.72;74.92
47366;BME280;33105;47.964;7.982;2022-12-29T16:43:35;96379.22;;;9.89;73.97
47366;BME280;33105;47.964;7.982;2022-12-29T16:50:17;96384.38;;;9.90;73.88
47366;BME280;33105;47.964;7.982;2022-12-29T16:53:40;96384.13;;;9.87;75.00
47366;BME280;33105;47.964;7.982;2022-12-29T16:56:45;96399.13;;;9.84;76.45
47366;BME280;33105;47.964;7.982;2022-12-29T16:59:51;96403.28;;;9.50;77.71
47366;BME280;33105;47.964;7.982;2022-12-29T17:02:56;96408.00;;;9.60;77.33
47366;BME280;33105;47.964;7.982;2022-12-29T17:05:58;96393.59;;;9.27;78.99
47366;BME280;33105;47.964;7.982;2022-12-29T17:09:00;96399.88;;;9.28;79.63
47366;BME280;33105;47.964;7.982;2022-12-29T17:12:05;96402.25;;;9.14;81.00
47366;BME280;33105;47.964;7.982;2022-12-29T17:15:23;96406.53;;;9.05;83.15
47366;BME280;33105;47.964;7.982;2022-12-29T17:18:27;96394.25;;;9.02;84.93
47366;BME280;33105;47.964;7.982;2022-12-29T17:21:29;96404.22;;;8.86;84.87
47366;BME280;33105;47.964;7.982;2022-12-29T17:24:30;96387.66;;;8.66;84.80
47366;BME280;33105;47.964;7.982;2022-12-29T17:27:43;96400.44;;;8.61;84.45
47366;BME280;33105;47.964;7.982;2022-12-29T17:30:47;96404.88;;;8.72;83.68
47366;BME280;33105;47.964;7.982;2022-12-29T17:33:49;96402.16;;;9.04;84.65
47366;BME280;33105;47.964;7.982;2022-12-29T17:36:50;96396.09;;;8.97;86.53
47366;BME280;33105;47.964;7.982;2022-12-29T17:39:55;96403.91;;;8.83;88.36
47366;BME280;33105;47.964;7.982;2022-12-29T17:42:57;96403.69;;;8.90;87.18
47366;BME280;33105;47.964;7.982;2022-12-29T17:45:59;96405.38;;;8.69;87.94
47366;BME280;33105;47.964;7.982;2022-12-29T17:49:10;96411.78;;;8.52;89.16
47366;BME280;33105;47.964;7.982;2022-12-29T17:52:15;96397.84;;;8.49;89.57
47366;BME280;33105;47.964;7.982;2022-12-29T17:55:20;96394.63;;;8.52;86.71
47366;BME280;33105;47.964;7.982;2022-12-29T17:58:24;96399.59;;;8.87;84.88
47366;BME280;33105;47.964;7.982;2022-12-29T18:01:26;96395.94;;;9.08;82.39
47366;BME280;33105;47.964;7.982;2022-12-29T18:04:28;96405.59;;;8.94;81.88
47366;BME280;33105;47.964;7.982;2022-12-29T18:07:30;96395.63;;;9.05;81.75
47366;BME280;33105;47.964;7.982;2022-12-29T18:10:34;96398.16;;;9.16;81.07
47366;BME280;33105;47.964;7.982;2022-12-29T18:13:38;96394.91;;;9.14;79.66
47366;BME280;33105;47.964;7.982;2022-12-29T18:16:40;96398.16;;;9.16;81.09
47366;BME280;33105;47.964;7.982;2022-12-29T18:19:43;96393.81;;;9.15;78.87
47366;BME280;33105;47.964;7.982;2022-12-29T18:22:46;96390.41;;;9.40;78.38
47366;BME280;33105;47.964;7.982;2022-12-29T18:25:53;96394.25;;;9.44;76.65
47366;BME280;33105;47.964;7.982;2022-12-29T18:28:56;96392.91;;;9.47;77.88
47366;BME280;33105;47.964;7.982;2022-12-29T18:31:58;96392.03;;;9.36;76.64